Erhard, Minnesota
Current Conditions -  °F | °C
As of 6:14 AM on Tuesday 27 Jan 2015 (Local Time) from KFFM Reporting Station
Haze Haze  
Wind Chill: 19°   Ceiling: 100
Heat Index: 27°   Visibility: 0.75mi
Dew Point: 27°   Wind: 7mph
Humidity: 100%   Direction: 160°SSE
Pressure: 30.1"   Gusts: NA
Location:  46.49°N, 96.1°W
Report Text: KFFM 271214Z AUTO 16006KT 3/4SM BR OVC001 M03/M03 A3010 RMK AO2
Loading
Personal Weather Stations






























Interactive Weather Map New forecast layout! Learn more

10-Day Weather Forecast

Advertisements
Track Severe Weather on mobile